createdAt,value
2022-12-03T00:00:13.299Z,35.33
2022-12-03T00:02:40.763Z,33.80
2022-12-03T00:05:08.333Z,32.83
2022-12-03T00:07:34.832Z,35.67
2022-12-03T00:10:01.388Z,35.10
2022-12-03T00:12:27.877Z,35.75
2022-12-03T00:14:54.420Z,34.22
2022-12-03T00:17:20.934Z,32.72
2022-12-03T00:19:47.227Z,35.22
2022-12-03T00:22:13.618Z,38.40
2022-12-03T00:24:40.117Z,36.38
2022-12-03T00:27:06.433Z,36.30
2022-12-03T00:29:32.780Z,35.30
2022-12-03T00:31:59.177Z,36.45
2022-12-03T00:34:25.501Z,38.63
2022-12-03T00:36:51.815Z,37.47
2022-12-03T00:39:18.166Z,36.08
2022-12-03T00:41:44.518Z,39.92
2022-12-03T00:44:11.867Z,36.47
2022-12-03T00:46:38.455Z,43.55
2022-12-03T00:49:04.935Z,43.58
2022-12-03T00:51:31.242Z,34.45
2022-12-03T00:53:57.565Z,36.80
2022-12-03T00:56:23.933Z,40.25
2022-12-03T00:58:50.253Z,36.45
2022-12-03T01:01:16.628Z,32.65
2022-12-03T01:03:43.131Z,33.15
2022-12-03T01:06:09.484Z,33.92
2022-12-03T01:08:35.822Z,38.08
2022-12-03T01:11:02.180Z,33.00
2022-12-03T01:13:28.537Z,39.35
2022-12-03T01:15:55.035Z,34.13
2022-12-03T01:18:21.472Z,36.17
2022-12-03T01:20:47.791Z,38.38
2022-12-03T01:23:14.136Z,42.42
2022-12-03T01:25:40.461Z,37.03
2022-12-03T01:28:07.182Z,32.80
2022-12-03T01:30:53.686Z,40.50
2022-12-03T01:33:20.071Z,38.67
2022-12-03T01:35:46.387Z,34.88
2022-12-03T01:38:12.830Z,35.97
2022-12-03T01:40:39.276Z,36.35
2022-12-03T01:43:05.597Z,32.10
2022-12-03T01:45:32.068Z,33.80
2022-12-03T01:47:58.442Z,28.42
2022-12-03T01:50:31.560Z,33.67
2022-12-03T01:53:01.716Z,31.17
2022-12-03T01:55:28.483Z,31.25
2022-12-03T01:57:58.860Z,31.77
2022-12-03T02:00:29.761Z,33.85
2022-12-03T02:03:00.176Z,34.65
2022-12-03T02:05:32.231Z,35.08
2022-12-03T02:07:59.549Z,34.35
2022-12-03T02:10:35.957Z,38.38
2022-12-03T02:13:09.084Z,36.15
2022-12-03T02:15:38.032Z,34.25
2022-12-03T02:18:04.592Z,32.95
2022-12-03T02:20:37.365Z,32.58
2022-12-03T02:23:29.999Z,38.63
2022-12-03T02:25:56.331Z,36.83
2022-12-03T02:28:22.741Z,39.10
2022-12-03T02:30:49.119Z,35.22
2022-12-03T02:33:15.596Z,38.45
2022-12-03T02:35:42.042Z,38.33
2022-12-03T02:38:19.613Z,40.80
2022-12-03T02:40:49.289Z,41.03
2022-12-03T02:43:18.005Z,39.38
2022-12-03T02:45:47.714Z,43.17
2022-12-03T02:48:19.671Z,45.60
2022-12-03T02:50:52.961Z,48.95
2022-12-03T02:53:24.073Z,44.75
2022-12-03T02:55:52.963Z,48.60
2022-12-03T02:58:20.356Z,44.03
2022-12-03T03:00:47.336Z,49.33
2022-12-03T03:03:13.984Z,52.80
2022-12-03T03:05:41.452Z,47.30
2022-12-03T03:08:09.939Z,49.00
2022-12-03T03:10:38.660Z,49.13
2022-12-03T03:13:09.275Z,56.58
2022-12-03T03:15:37.464Z,53.40
2022-12-03T03:18:04.954Z,51.22
2022-12-03T03:20:31.950Z,45.92
2022-12-03T03:23:11.328Z,48.38
2022-12-03T03:25:43.856Z,46.53
2022-12-03T03:28:11.681Z,44.70
2022-12-03T03:30:39.452Z,49.13
2022-12-03T03:33:06.423Z,50.35
2022-12-03T03:35:32.910Z,45.50
2022-12-03T03:37:59.754Z,43.80
2022-12-03T03:40:26.843Z,42.95
2022-12-03T03:42:53.304Z,45.17
2022-12-03T03:45:25.505Z,55.33
2022-12-03T03:47:55.428Z,47.42
2022-12-03T03:50:22.313Z,50.25
2022-12-03T03:52:48.973Z,50.05
2022-12-03T03:55:15.345Z,49.03
2022-12-03T03:57:41.779Z,48.40
2022-12-03T04:00:08.989Z,48.22
2022-12-03T04:02:36.298Z,53.90
2022-12-03T04:05:02.721Z,58.45
2022-12-03T04:07:29.114Z,57.30
2022-12-03T04:09:55.538Z,54.17
2022-12-03T04:12:40.744Z,49.20
2022-12-03T04:15:08.004Z,53.50
2022-12-03T04:17:34.333Z,48.97
2022-12-03T04:20:00.721Z,53.47
2022-12-03T04:22:42.379Z,53.15
2022-12-03T04:25:29.069Z,57.13
2022-12-03T04:28:13.806Z,54.50
2022-12-03T04:30:40.187Z,55.33
2022-12-03T04:33:24.969Z,51.92
2022-12-03T04:35:51.321Z,55.40
2022-12-03T04:38:17.757Z,64.38
2022-12-03T04:41:03.951Z,49.72
2022-12-03T04:43:32.836Z,55.83
2022-12-03T04:45:59.881Z,60.90
2022-12-03T04:48:26.834Z,54.67
2022-12-03T04:50:53.268Z,60.95
2022-12-03T04:53:19.755Z,61.05
2022-12-03T04:55:46.093Z,61.28
2022-12-03T04:58:12.405Z,60.33
2022-12-03T05:00:38.789Z,63.63
2022-12-03T05:03:05.220Z,64.43
2022-12-03T05:05:31.669Z,57.50
2022-12-03T05:07:58.040Z,66.95
2022-12-03T05:10:24.544Z,58.83
2022-12-03T05:12:50.834Z,59.15
2022-12-03T05:15:17.257Z,60.95
2022-12-03T05:17:43.581Z,60.00
2022-12-03T05:20:29.317Z,58.10
2022-12-03T05:22:55.669Z,50.75
2022-12-03T05:25:21.981Z,58.13
2022-12-03T05:27:48.464Z,54.40
2022-12-03T05:30:15.037Z,56.97
2022-12-03T05:32:41.406Z,53.50
2022-12-03T05:35:08.078Z,59.83
2022-12-03T05:37:34.378Z,48.42
2022-12-03T05:40:00.738Z,52.92
2022-12-03T05:42:45.733Z,53.53
2022-12-03T05:45:13.209Z,45.75
2022-12-03T05:47:39.508Z,42.35
2022-12-03T05:50:06.591Z,51.00
2022-12-03T05:52:33.017Z,42.63
2022-12-03T05:54:59.364Z,44.05
2022-12-03T05:57:25.774Z,45.85
2022-12-03T05:59:52.116Z,42.83
2022-12-03T06:02:18.570Z,45.42
2022-12-03T06:04:45.083Z,40.03
2022-12-03T06:07:14.122Z,40.95
2022-12-03T06:09:40.950Z,42.22
2022-12-03T06:12:08.643Z,38.92
2022-12-03T06:14:35.610Z,40.95
2022-12-03T06:17:02.363Z,39.78
2022-12-03T06:19:28.737Z,43.50
2022-12-03T06:21:55.443Z,41.88
2022-12-03T06:24:21.935Z,41.28
2022-12-03T06:26:48.265Z,38.08
2022-12-03T06:29:14.605Z,39.47
2022-12-03T06:31:41.027Z,37.65
2022-12-03T06:34:07.434Z,40.47
2022-12-03T06:36:33.818Z,36.72
2022-12-03T06:39:00.247Z,38.53
2022-12-03T06:41:26.592Z,33.03
2022-12-03T06:43:52.923Z,36.47
2022-12-03T06:46:19.289Z,40.05
2022-12-03T06:48:45.634Z,34.38
2022-12-03T06:51:12.141Z,37.95
2022-12-03T06:53:38.501Z,38.78
2022-12-03T06:56:05.167Z,41.75
2022-12-03T06:58:31.504Z,41.15
2022-12-03T07:00:57.873Z,47.03
2022-12-03T07:03:24.253Z,47.38
2022-12-03T07:06:06.114Z,48.35
2022-12-03T07:08:32.426Z,49.25
2022-12-03T07:10:58.765Z,49.03
2022-12-03T07:13:25.101Z,51.50
2022-12-03T07:15:52.246Z,48.10
2022-12-03T07:18:18.589Z,52.90
2022-12-03T07:20:44.926Z,47.90
2022-12-03T07:23:11.239Z,56.22
2022-12-03T07:25:37.585Z,51.28
2022-12-03T07:28:04.191Z,49.47
2022-12-03T07:30:30.535Z,52.17
2022-12-03T07:32:56.918Z,43.83
2022-12-03T07:35:23.241Z,51.85
2022-12-03T07:37:49.550Z,48.47
2022-12-03T07:40:15.932Z,51.15
2022-12-03T07:42:42.302Z,53.08
2022-12-03T07:45:09.290Z,52.80
2022-12-03T07:47:35.578Z,51.83
2022-12-03T07:50:01.937Z,46.47
2022-12-03T07:52:28.400Z,52.53
2022-12-03T07:54:54.962Z,48.45
2022-12-03T07:57:21.507Z,48.85
2022-12-03T07:59:47.805Z,47.50
2022-12-03T08:02:20.818Z,48.92
2022-12-03T08:04:47.847Z,50.17
2022-12-03T08:07:14.166Z,45.75
2022-12-03T08:09:41.199Z,45.65
2022-12-03T08:12:17.097Z,49.05
2022-12-03T08:14:44.322Z,48.33
2022-12-03T08:17:14.836Z,54.88
2022-12-03T08:19:46.239Z,53.90
2022-12-03T08:22:14.362Z,52.17
2022-12-03T08:24:41.284Z,50.17
2022-12-03T08:27:17.951Z,50.53
2022-12-03T08:29:46.166Z,47.50
2022-12-03T08:32:12.828Z,48.17
2022-12-03T08:34:44.193Z,50.50
2022-12-03T08:37:18.776Z,45.97
2022-12-03T08:39:48.345Z,46.63
2022-12-03T08:42:42.059Z,49.42
2022-12-03T08:45:31.884Z,45.92
2022-12-03T08:48:00.194Z,46.78
2022-12-03T08:50:29.878Z,46.00
2022-12-03T08:53:07.769Z,47.95
2022-12-03T08:55:36.743Z,49.35
2022-12-03T08:58:17.291Z,46.88
2022-12-03T09:00:44.388Z,44.28
2022-12-03T09:03:18.509Z,45.05
2022-12-03T09:05:44.951Z,43.35
2022-12-03T09:08:11.308Z,42.42
2022-12-03T09:10:37.739Z,43.50
2022-12-03T09:13:04.071Z,44.53
2022-12-03T09:15:30.455Z,43.88
2022-12-03T09:17:57.409Z,46.53
2022-12-03T09:20:23.743Z,44.47
2022-12-03T09:22:50.071Z,40.28
2022-12-03T09:25:16.903Z,43.05
2022-12-03T09:27:43.236Z,42.47
2022-12-03T09:30:10.092Z,44.67
2022-12-03T09:32:36.548Z,48.25
2022-12-03T09:35:02.893Z,41.63
2022-12-03T09:37:29.332Z,44.20
2022-12-03T09:39:55.742Z,46.15
2022-12-03T09:42:22.484Z,43.15
2022-12-03T09:44:48.917Z,42.63
2022-12-03T09:47:15.291Z,45.75
2022-12-03T09:49:42.246Z,43.00
2022-12-03T09:52:11.669Z,45.88
2022-12-03T09:54:41.607Z,48.42
2022-12-03T09:57:13.309Z,48.75
2022-12-03T09:59:39.826Z,43.75
2022-12-03T10:02:35.966Z,46.47
2022-12-03T10:05:02.313Z,48.05
2022-12-03T10:07:28.762Z,46.10
2022-12-03T10:09:55.668Z,47.55
2022-12-03T10:12:24.654Z,43.67
2022-12-03T10:14:52.616Z,45.47
2022-12-03T10:17:19.241Z,45.75
2022-12-03T10:19:45.812Z,47.33
2022-12-03T10:22:12.114Z,45.97
2022-12-03T10:24:38.859Z,44.15
2022-12-03T10:27:30.267Z,50.28
2022-12-03T10:29:59.216Z,47.35
2022-12-03T10:32:27.614Z,47.65
2022-12-03T10:35:09.299Z,53.33
2022-12-03T10:37:35.718Z,53.15
2022-12-03T10:40:08.445Z,52.92
2022-12-03T10:42:37.386Z,48.83
2022-12-03T10:45:14.367Z,58.00
2022-12-03T10:47:41.882Z,55.85
2022-12-03T10:50:17.430Z,61.08
2022-12-03T10:52:44.560Z,59.97
2022-12-03T10:55:13.596Z,61.70
2022-12-03T10:57:45.258Z,59.70
2022-12-03T11:00:19.350Z,57.53
2022-12-03T11:02:50.406Z,63.17
2022-12-03T11:05:26.782Z,61.13
2022-12-03T11:07:53.440Z,66.72
2022-12-03T11:10:20.508Z,55.83
2022-12-03T11:13:24.463Z,63.83
2022-12-03T11:15:50.918Z,65.00
2022-12-03T11:18:35.897Z,66.10
2022-12-03T11:21:04.909Z,66.93
2022-12-03T11:23:46.718Z,66.88
2022-12-03T11:26:29.338Z,67.32
2022-12-03T11:28:57.401Z,70.63
2022-12-03T11:31:43.096Z,75.65
2022-12-03T11:34:18.672Z,71.03
2022-12-03T11:37:10.209Z,72.82
2022-12-03T11:39:52.220Z,76.07
2022-12-03T11:42:31.068Z,78.57
2022-12-03T11:45:06.578Z,69.93
2022-12-03T11:47:41.883Z,74.40
2022-12-03T11:50:23.529Z,77.45
2022-12-03T11:53:08.910Z,66.30
2022-12-03T11:55:40.655Z,71.72
2022-12-03T11:58:27.016Z,65.18
2022-12-03T12:00:59.053Z,69.72
2022-12-03T12:03:28.389Z,71.47
2022-12-03T12:06:02.329Z,71.43
2022-12-03T12:08:28.833Z,67.43
2022-12-03T12:10:55.308Z,62.33
2022-12-03T12:13:51.107Z,71.80
2022-12-03T12:16:42.216Z,71.32
2022-12-03T12:19:29.986Z,63.78
2022-12-03T12:22:12.666Z,61.38
2022-12-03T12:24:47.771Z,60.95
2022-12-03T12:27:22.242Z,65.85
2022-12-03T12:29:55.074Z,66.55
2022-12-03T12:32:29.141Z,64.65
2022-12-03T12:35:02.162Z,69.40
2022-12-03T12:37:38.627Z,67.30
2022-12-03T12:40:15.446Z,64.85
2022-12-03T12:43:09.953Z,66.40
2022-12-03T12:45:42.400Z,69.43
2022-12-03T12:48:16.024Z,68.07
2022-12-03T12:50:47.410Z,73.13
2022-12-03T12:53:23.958Z,72.50
2022-12-03T12:56:06.517Z,70.93
2022-12-03T12:58:33.716Z,78.28
2022-12-03T13:01:26.977Z,63.63
2022-12-03T13:03:53.798Z,72.10
2022-12-03T13:06:28.348Z,70.63
2022-12-03T13:08:55.370Z,70.13
2022-12-03T13:11:24.515Z,74.35
2022-12-03T13:13:51.562Z,68.80
2022-12-03T13:16:30.486Z,77.97
2022-12-03T13:18:59.165Z,66.40
2022-12-03T13:21:42.793Z,75.25
2022-12-03T13:24:33.716Z,75.13
2022-12-03T13:27:05.405Z,66.95
2022-12-03T13:29:31.993Z,71.88
2022-12-03T13:32:18.690Z,70.25
2022-12-03T13:34:46.459Z,68.82
2022-12-03T13:37:19.853Z,68.03
2022-12-03T13:39:51.758Z,68.95
2022-12-03T13:42:46.573Z,66.30
2022-12-03T13:45:18.882Z,71.25
2022-12-03T13:47:47.893Z,65.93
2022-12-03T13:50:41.313Z,75.97
2022-12-03T13:53:13.594Z,64.07
2022-12-03T13:55:46.489Z,67.28
2022-12-03T13:58:12.909Z,67.63
2022-12-03T14:00:39.362Z,66.40
2022-12-03T14:03:05.751Z,70.55
2022-12-03T14:05:32.119Z,74.88
2022-12-03T14:08:01.576Z,65.40
2022-12-03T14:10:29.686Z,63.85
2022-12-03T14:12:56.587Z,68.88
2022-12-03T14:15:23.460Z,62.72
2022-12-03T14:17:49.778Z,63.92
2022-12-03T14:20:16.085Z,68.80
2022-12-03T14:22:42.378Z,67.00
2022-12-03T14:25:09.383Z,61.72
2022-12-03T14:27:35.769Z,68.97
2022-12-03T14:30:02.292Z,66.25
2022-12-03T14:32:28.609Z,64.15
2022-12-03T14:34:54.977Z,66.13
2022-12-03T14:37:21.341Z,66.32
2022-12-03T14:39:47.724Z,64.35
2022-12-03T14:42:14.140Z,63.53
2022-12-03T14:44:47.986Z,70.63
2022-12-03T14:47:16.290Z,72.88
2022-12-03T14:49:42.667Z,70.85
2022-12-03T14:52:12.248Z,73.55
2022-12-03T14:54:40.475Z,68.85
2022-12-03T14:57:06.798Z,71.40
2022-12-03T14:59:33.296Z,77.53
2022-12-03T15:01:59.748Z,76.50
2022-12-03T15:04:26.245Z,76.30
2022-12-03T15:06:52.675Z,72.82
2022-12-03T15:09:19.024Z,76.07
2022-12-03T15:11:46.609Z,76.32
2022-12-03T15:14:13.203Z,74.82
2022-12-03T15:16:39.558Z,70.38
2022-12-03T15:19:05.953Z,78.20
2022-12-03T15:21:35.156Z,77.53
2022-12-03T15:24:02.270Z,80.22
2022-12-03T15:26:28.890Z,73.70
2022-12-03T15:28:55.404Z,72.15
2022-12-03T15:31:21.752Z,68.75
2022-12-03T15:33:48.095Z,73.20
2022-12-03T15:36:14.736Z,66.55
2022-12-03T15:38:41.136Z,70.88
2022-12-03T15:41:43.358Z,69.03
2022-12-03T15:44:09.713Z,69.70
2022-12-03T15:46:36.119Z,72.22
2022-12-03T15:49:03.723Z,67.13
2022-12-03T15:51:30.110Z,75.30
2022-12-03T15:53:56.452Z,73.85
2022-12-03T15:56:22.786Z,73.65
2022-12-03T15:58:49.194Z,74.55
2022-12-03T16:01:17.878Z,72.03
2022-12-03T16:03:44.287Z,69.78
2022-12-03T16:06:10.761Z,88.00
2022-12-03T16:08:37.104Z,72.97
2022-12-03T16:11:03.493Z,71.63
2022-12-03T16:13:29.863Z,75.40
2022-12-03T16:15:56.297Z,69.97
2022-12-03T16:18:22.691Z,70.13
2022-12-03T16:20:49.009Z,80.72
2022-12-03T16:23:15.357Z,79.60
2022-12-03T16:25:41.656Z,71.63
2022-12-03T16:28:08.428Z,79.53
2022-12-03T16:30:36.064Z,72.35
2022-12-03T16:33:02.467Z,74.05
2022-12-03T16:35:28.874Z,74.82
2022-12-03T16:37:55.235Z,79.68
2022-12-03T16:40:21.589Z,76.68
2022-12-03T16:42:47.899Z,76.25
2022-12-03T16:45:43.644Z,74.88
2022-12-03T16:48:09.959Z,70.25
2022-12-03T16:50:37.588Z,76.70
2022-12-03T16:53:03.987Z,74.55
2022-12-03T16:55:30.311Z,70.75
2022-12-03T16:57:56.743Z,72.50
2022-12-03T17:00:23.168Z,71.40
2022-12-03T17:02:49.563Z,70.05
2022-12-03T17:05:16.089Z,72.68
2022-12-03T17:07:42.494Z,71.68
2022-12-03T17:10:09.351Z,75.20
2022-12-03T17:13:01.249Z,72.15
2022-12-03T17:15:22.674Z,72.38
2022-12-03T17:17:49.052Z,78.93
2022-12-03T17:20:17.254Z,73.00
2022-12-03T17:22:43.866Z,75.50
2022-12-03T17:25:10.900Z,72.50
2022-12-03T17:27:42.098Z,72.35
2022-12-03T17:30:11.416Z,71.07
2022-12-03T17:32:37.783Z,72.63
2022-12-03T17:35:04.550Z,75.72
2022-12-03T17:37:30.882Z,65.75
2022-12-03T17:39:57.474Z,80.03
2022-12-03T17:42:23.986Z,77.30
2022-12-03T17:44:50.289Z,65.55
2022-12-03T17:47:16.607Z,79.05
2022-12-03T17:49:42.987Z,80.75
2022-12-03T17:52:09.470Z,72.22
2022-12-03T17:55:02.003Z,72.75
2022-12-03T17:57:22.161Z,68.30
2022-12-03T17:59:48.515Z,75.47
2022-12-03T18:02:15.451Z,66.82
2022-12-03T18:04:41.779Z,67.68
2022-12-03T18:07:08.315Z,70.10
2022-12-03T18:09:34.672Z,73.25
2022-12-03T18:12:01.577Z,70.95
2022-12-03T18:14:27.900Z,69.45
2022-12-03T18:16:54.287Z,68.20
2022-12-03T18:19:20.695Z,68.60
2022-12-03T18:21:47.032Z,74.40
2022-12-03T18:24:13.929Z,69.18
2022-12-03T18:26:40.466Z,71.03
2022-12-03T18:29:06.836Z,71.32
2022-12-03T18:31:33.165Z,68.50
2022-12-03T18:33:59.666Z,75.28
2022-12-03T18:36:29.865Z,72.47
2022-12-03T18:38:58.426Z,73.45
2022-12-03T18:41:25.287Z,74.72
2022-12-03T18:43:51.848Z,72.88
2022-12-03T18:46:45.039Z,80.28
2022-12-03T18:49:05.950Z,76.78
2022-12-03T18:51:32.298Z,75.65
2022-12-03T18:53:58.608Z,81.50
2022-12-03T18:56:25.049Z,83.78
2022-12-03T18:58:51.357Z,79.10
2022-12-03T19:01:20.266Z,75.60
2022-12-03T19:03:46.731Z,76.15
2022-12-03T19:06:20.749Z,73.88
2022-12-03T19:08:54.171Z,70.07
2022-12-03T19:11:21.734Z,77.55
2022-12-03T19:13:48.420Z,74.93
2022-12-03T19:16:17.047Z,82.68
2022-12-03T19:18:44.298Z,76.13
2022-12-03T19:21:13.906Z,76.18
2022-12-03T19:23:40.349Z,81.13
2022-12-03T19:26:08.888Z,85.03
2022-12-03T19:28:35.467Z,84.57
2022-12-03T19:31:05.097Z,81.07
2022-12-03T19:33:32.674Z,73.57
2022-12-03T19:36:00.255Z,78.50
2022-12-03T19:38:28.447Z,83.97
2022-12-03T19:41:12.926Z,85.57
2022-12-03T19:43:39.842Z,73.07
2022-12-03T19:46:11.762Z,68.70
2022-12-03T19:48:39.918Z,75.22
2022-12-03T19:51:33.068Z,76.72
2022-12-03T19:53:54.476Z,72.03
2022-12-03T19:56:20.843Z,81.30
2022-12-03T19:58:47.759Z,75.93
2022-12-03T20:01:15.520Z,82.85
2022-12-03T20:03:43.466Z,77.20
2022-12-03T20:06:10.613Z,80.20
2022-12-03T20:08:37.374Z,78.97
2022-12-03T20:11:14.295Z,74.30
2022-12-03T20:13:41.458Z,78.20
2022-12-03T20:16:12.413Z,77.65
2022-12-03T20:18:40.747Z,75.30
2022-12-03T20:21:08.949Z,74.97
2022-12-03T20:23:35.403Z,79.50
2022-12-03T20:26:01.969Z,73.60
2022-12-03T20:28:29.296Z,76.50
2022-12-03T20:31:04.325Z,75.25
2022-12-03T20:33:30.668Z,80.32
2022-12-03T20:35:58.880Z,77.80
2022-12-03T20:38:26.416Z,78.28
2022-12-03T20:40:53.041Z,76.70
2022-12-03T20:43:19.465Z,77.57
2022-12-03T20:45:46.053Z,83.82
2022-12-03T20:48:12.561Z,83.05
2022-12-03T20:50:40.210Z,76.82
2022-12-03T20:53:24.450Z,78.35
2022-12-03T20:55:56.297Z,79.07
2022-12-03T20:58:22.617Z,71.25
2022-12-03T21:00:49.070Z,82.20
2022-12-03T21:03:15.619Z,81.30
2022-12-03T21:05:43.747Z,76.63
2022-12-03T21:08:13.165Z,77.15
2022-12-03T21:10:45.024Z,82.78
2022-12-03T21:13:16.385Z,83.25
2022-12-03T21:15:44.128Z,75.07
2022-12-03T21:18:12.388Z,77.53
2022-12-03T21:20:43.839Z,78.63
2022-12-03T21:23:10.414Z,77.07
2022-12-03T21:25:37.757Z,78.15
2022-12-03T21:28:06.376Z,72.82
2022-12-03T21:30:33.403Z,78.80
2022-12-03T21:32:59.903Z,77.38
2022-12-03T21:35:26.278Z,76.20
2022-12-03T21:37:52.682Z,76.95
2022-12-03T21:40:19.687Z,81.82
2022-12-03T21:42:46.434Z,77.40
2022-12-03T21:45:13.159Z,83.68
2022-12-03T21:47:39.629Z,79.38
2022-12-03T21:50:11.039Z,88.43
2022-12-03T21:52:37.466Z,78.50
2022-12-03T21:55:04.147Z,86.25
2022-12-03T21:57:30.574Z,76.50
2022-12-03T21:59:57.427Z,77.88
2022-12-03T22:02:27.986Z,77.85
2022-12-03T22:04:54.425Z,81.80
2022-12-03T22:07:20.784Z,81.65
2022-12-03T22:09:47.101Z,82.43
2022-12-03T22:12:13.438Z,77.53
2022-12-03T22:14:39.844Z,77.20
2022-12-03T22:17:06.195Z,78.15
2022-12-03T22:19:32.542Z,83.75
2022-12-03T22:21:58.866Z,84.10
2022-12-03T22:24:25.256Z,79.05
2022-12-03T22:26:53.398Z,78.95
2022-12-03T22:29:19.741Z,81.15
2022-12-03T22:31:46.296Z,81.38
2022-12-03T22:34:12.751Z,79.68
2022-12-03T22:36:39.082Z,75.10
2022-12-03T22:39:05.484Z,81.25
2022-12-03T22:41:31.868Z,76.32
2022-12-03T22:43:58.182Z,80.68
2022-12-03T22:46:24.639Z,85.63
2022-12-03T22:48:51.013Z,76.32
2022-12-03T22:51:23.218Z,73.22
2022-12-03T22:53:57.344Z,80.07
2022-12-03T22:56:25.101Z,78.82
2022-12-03T22:58:51.881Z,84.88
2022-12-03T23:01:23.183Z,75.88
2022-12-03T23:03:49.619Z,74.70
2022-12-03T23:06:16.605Z,70.10
2022-12-03T23:08:43.018Z,74.47
2022-12-03T23:11:09.390Z,80.82
2022-12-03T23:13:36.186Z,70.22
2022-12-03T23:16:03.652Z,75.18
2022-12-03T23:18:30.191Z,69.90
2022-12-03T23:20:57.104Z,72.20
2022-12-03T23:23:25.474Z,75.63
2022-12-03T23:26:09.594Z,68.32
2022-12-03T23:28:38.034Z,73.07
2022-12-03T23:31:05.251Z,73.32
2022-12-03T23:33:37.990Z,70.13
2022-12-03T23:36:06.124Z,65.70
2022-12-03T23:38:32.443Z,70.13
2022-12-03T23:41:11.213Z,71.38
2022-12-03T23:43:37.988Z,71.40
2022-12-03T23:46:06.738Z,70.10
2022-12-03T23:48:33.219Z,68.10
2022-12-03T23:51:00.157Z,68.82
2022-12-03T23:53:26.530Z,69.57
2022-12-03T23:55:52.830Z,74.78
2022-12-03T23:58:19.164Z,74.97
